createdAt,value
2023-04-05T00:00:07.769Z,43.00
2023-04-05T00:05:18.083Z,44.87
2023-04-05T00:10:25.485Z,44.93
2023-04-05T00:15:33.541Z,42.77
2023-04-05T00:20:41.393Z,43.45
2023-04-05T00:25:49.651Z,43.93
2023-04-05T00:30:57.373Z,66.62
2023-04-05T00:36:15.093Z,52.27
2023-04-05T00:41:22.115Z,47.33
2023-04-05T00:51:36.807Z,41.23
2023-04-05T00:56:45.939Z,42.77
2023-04-05T01:02:10.765Z,44.43
2023-04-05T01:07:31.611Z,43.10
2023-04-05T01:12:42.287Z,41.87
2023-04-05T01:17:49.974Z,41.80
2023-04-05T01:23:34.970Z,43.03
2023-04-05T01:29:25.858Z,43.17
2023-04-05T01:34:46.743Z,43.23
2023-04-05T01:40:00.193Z,43.33
2023-04-05T01:45:08.984Z,43.30
2023-04-05T01:50:18.469Z,44.00
2023-04-05T01:55:26.082Z,44.20
2023-04-05T02:00:33.579Z,42.63
2023-04-05T02:05:42.173Z,42.93
2023-04-05T02:10:50.029Z,44.98
2023-04-05T02:15:57.635Z,41.87
2023-04-05T02:21:08.598Z,43.33
2023-04-05T02:26:16.250Z,42.60
2023-04-05T02:31:23.916Z,43.47
2023-04-05T02:36:31.061Z,43.23
2023-04-05T02:41:39.342Z,42.97
2023-04-05T02:46:46.648Z,43.87
2023-04-05T02:57:01.231Z,42.60
2023-04-05T03:02:11.480Z,43.17
2023-04-05T03:07:19.279Z,43.60
2023-04-05T03:12:26.868Z,41.53
2023-04-05T03:17:34.856Z,40.43
2023-04-05T03:22:43.399Z,42.25
2023-04-05T03:27:52.240Z,41.27
2023-04-05T03:33:00.815Z,39.50
2023-04-05T03:38:08.238Z,39.37
2023-04-05T03:43:16.392Z,38.87
2023-04-05T03:48:24.236Z,38.47
2023-04-05T03:53:31.140Z,37.57
2023-04-05T03:58:40.214Z,38.33
2023-04-05T04:03:47.467Z,37.43
2023-04-05T04:08:55.405Z,37.95
2023-04-05T04:14:02.762Z,38.67
2023-04-05T04:19:09.757Z,37.77
2023-04-05T04:24:18.899Z,39.03
2023-04-05T04:29:30.765Z,39.13
2023-04-05T04:34:38.509Z,38.50
2023-04-05T04:39:48.040Z,39.48
2023-04-05T04:44:56.396Z,38.80
2023-04-05T04:50:05.234Z,41.13
2023-04-05T04:55:15.054Z,40.73
2023-04-05T05:00:24.983Z,40.03
2023-04-05T05:05:33.576Z,37.53
2023-04-05T05:10:42.558Z,37.88
2023-04-05T05:15:50.558Z,38.83
2023-04-05T05:21:00.032Z,37.13
2023-04-05T05:26:07.853Z,38.70
2023-04-05T05:31:14.923Z,40.23
2023-04-05T05:41:29.157Z,43.02
2023-04-05T05:46:36.258Z,43.37
2023-04-05T05:51:44.631Z,45.73
2023-04-05T05:56:52.398Z,49.03
2023-04-05T06:01:58.959Z,51.70
2023-04-05T06:07:07.709Z,49.97
2023-04-05T06:12:15.639Z,54.00
2023-04-05T06:17:23.227Z,51.97
2023-04-05T06:22:31.132Z,55.70
2023-04-05T06:27:39.580Z,57.40
2023-04-05T06:32:50.687Z,53.83
2023-04-05T06:37:58.489Z,63.87
2023-04-05T06:43:05.693Z,77.00
2023-04-05T06:48:13.833Z,62.93
2023-04-05T06:53:20.969Z,55.13
2023-04-05T06:58:29.174Z,53.83
2023-04-05T07:03:37.622Z,53.78
2023-04-05T07:08:45.028Z,51.43
2023-04-05T07:13:52.080Z,48.53
2023-04-05T07:18:59.645Z,48.48
2023-04-05T07:24:06.981Z,47.70
2023-04-05T07:29:14.317Z,49.10
2023-04-05T07:34:21.609Z,46.47
2023-04-05T07:39:29.343Z,46.73
2023-04-05T07:44:36.086Z,48.93
2023-04-05T07:49:43.642Z,50.03
2023-04-05T07:59:56.970Z,48.97
2023-04-05T08:10:12.299Z,49.20
2023-04-05T08:15:19.408Z,49.33
2023-04-05T08:20:27.015Z,47.93
2023-04-05T08:25:34.442Z,47.90
2023-04-05T08:30:41.758Z,46.00
2023-04-05T08:35:50.420Z,46.23
2023-04-05T08:40:57.192Z,52.27
2023-04-05T08:46:08.908Z,48.00
2023-04-05T08:51:17.597Z,48.00
2023-04-05T08:56:31.201Z,48.65
2023-04-05T09:01:47.717Z,57.38
2023-04-05T09:06:57.712Z,53.25
2023-04-05T09:12:07.309Z,46.47
2023-04-05T09:17:15.391Z,47.60
2023-04-05T09:22:24.618Z,47.93
2023-04-05T09:27:32.340Z,47.20
2023-04-05T09:32:39.142Z,47.87
2023-04-05T09:37:56.584Z,46.17
2023-04-05T09:43:04.356Z,46.03
2023-04-05T09:48:14.186Z,46.47
2023-04-05T09:53:21.478Z,46.80
2023-04-05T09:58:33.450Z,45.75
2023-04-05T10:03:49.563Z,45.70
2023-04-05T10:08:57.330Z,44.97
2023-04-05T10:14:07.170Z,45.33
2023-04-05T10:19:40.513Z,45.33
2023-04-05T10:24:56.767Z,45.20
2023-04-05T10:30:10.236Z,46.23
2023-04-05T10:35:21.407Z,45.07
2023-04-05T10:40:32.859Z,45.87
2023-04-05T10:45:43.076Z,46.07
2023-04-05T10:50:50.985Z,49.47
2023-04-05T10:55:59.782Z,46.97
2023-04-05T11:01:07.762Z,47.27
2023-04-05T11:06:23.247Z,46.63
2023-04-05T11:11:32.819Z,46.03
2023-04-05T11:16:42.936Z,45.75
2023-04-05T11:21:56.546Z,45.43
2023-04-05T11:27:05.078Z,46.70
2023-04-05T11:32:17.049Z,45.90
2023-04-05T11:37:26.495Z,46.00
2023-04-05T11:42:33.535Z,45.90
2023-04-05T11:47:42.052Z,46.23
2023-04-05T11:53:11.520Z,45.40
2023-04-05T11:58:23.406Z,46.27
2023-04-05T12:03:32.369Z,46.47
2023-04-05T12:08:53.994Z,45.43
2023-04-05T12:14:03.188Z,46.23
2023-04-05T12:19:10.597Z,45.57
2023-04-05T12:24:18.022Z,47.77
2023-04-05T12:29:26.038Z,46.87
2023-04-05T12:34:33.569Z,47.07
2023-04-05T12:39:41.296Z,46.63
2023-04-05T12:44:51.889Z,47.27
2023-04-05T12:49:59.296Z,47.00
2023-04-05T12:55:10.067Z,46.90
2023-04-05T13:00:17.974Z,47.20
2023-04-05T13:05:28.199Z,47.83
2023-04-05T13:10:35.232Z,46.63
2023-04-05T13:15:42.876Z,46.67
2023-04-05T13:20:49.894Z,46.98
2023-04-05T13:25:57.153Z,46.27
2023-04-05T13:31:06.906Z,47.23
2023-04-05T13:36:14.092Z,46.73
2023-04-05T13:41:21.556Z,46.33
2023-04-05T13:51:35.420Z,45.77
2023-04-05T13:56:42.442Z,46.60
2023-04-05T14:01:50.160Z,47.67
2023-04-05T14:06:57.922Z,46.00
2023-04-05T14:12:05.358Z,46.63
2023-04-05T14:17:13.384Z,45.87
2023-04-05T14:22:21.961Z,45.83
2023-04-05T14:27:29.830Z,47.33
2023-04-05T14:32:37.149Z,47.07
2023-04-05T14:37:46.158Z,47.03
2023-04-05T14:42:53.744Z,46.67
2023-04-05T14:48:01.354Z,46.73
2023-04-05T14:53:10.487Z,46.33
2023-04-05T14:58:19.235Z,46.13
2023-04-05T15:03:28.001Z,46.20
2023-04-05T15:08:36.211Z,45.90
2023-04-05T15:18:55.192Z,45.40
2023-04-05T15:24:03.444Z,46.90
2023-04-05T15:29:12.742Z,46.80
2023-04-05T15:34:20.184Z,47.17
2023-04-05T15:39:28.851Z,44.87
2023-04-05T15:44:36.750Z,45.43
2023-04-05T15:49:44.808Z,45.85
2023-04-05T15:54:52.447Z,45.88
2023-04-05T15:59:59.912Z,46.37
2023-04-05T16:05:07.648Z,46.50
2023-04-05T16:10:14.577Z,47.23
2023-04-05T16:15:22.974Z,47.93
2023-04-05T16:20:31.022Z,45.80
2023-04-05T16:25:38.416Z,47.00
2023-04-05T16:30:47.559Z,46.98
2023-04-05T16:35:55.280Z,46.70
2023-04-05T16:41:02.390Z,49.10
2023-04-05T16:46:10.217Z,49.37
2023-04-05T16:51:17.946Z,53.83
2023-04-05T16:56:25.807Z,52.87
2023-04-05T17:01:33.812Z,49.10
2023-04-05T17:06:43.270Z,50.98
2023-04-05T17:11:51.981Z,51.30
2023-04-05T17:17:00.654Z,51.90
2023-04-05T17:22:07.794Z,47.90
2023-04-05T17:27:15.183Z,46.23
2023-04-05T17:32:21.948Z,46.60
2023-04-05T17:37:29.338Z,46.10
2023-04-05T17:42:36.856Z,48.37
2023-04-05T17:47:44.468Z,47.27
2023-04-05T17:52:51.907Z,47.45
2023-04-05T17:57:59.029Z,47.00
2023-04-05T18:03:08.584Z,46.53
2023-04-05T18:08:14.670Z,47.63
2023-04-05T18:13:21.615Z,48.83
2023-04-05T18:18:29.241Z,46.63
2023-04-05T18:23:37.256Z,49.10
2023-04-05T18:28:45.549Z,48.90
2023-04-05T18:33:52.793Z,49.73
2023-04-05T18:39:04.856Z,49.13
2023-04-05T18:44:13.640Z,50.20
2023-04-05T18:49:23.733Z,48.73
2023-04-05T18:54:36.859Z,48.37
2023-04-05T18:59:45.216Z,50.88
2023-04-05T19:04:55.282Z,49.08
2023-04-05T19:10:01.903Z,47.73
2023-04-05T19:15:10.707Z,46.60
2023-04-05T19:20:17.747Z,47.57
2023-04-05T19:25:25.666Z,47.20
2023-04-05T19:30:34.416Z,48.52
2023-04-05T19:35:43.388Z,47.17
2023-04-05T19:40:51.152Z,46.42
2023-04-05T19:46:02.568Z,47.53
2023-04-05T19:51:12.612Z,47.30
2023-04-05T19:56:27.694Z,46.73
2023-04-05T20:01:40.719Z,33.63
2023-04-05T20:06:57.553Z,46.90
2023-04-05T20:17:16.745Z,46.73
2023-04-05T20:22:24.565Z,46.77
2023-04-05T20:27:32.639Z,48.13
2023-04-05T20:32:40.922Z,49.00
2023-04-05T20:37:49.916Z,47.70
2023-04-05T20:42:58.141Z,47.83
2023-04-05T20:48:06.104Z,47.57
2023-04-05T20:53:14.422Z,47.07
2023-04-05T20:58:23.150Z,47.57
2023-04-05T21:03:34.825Z,47.93
2023-04-05T21:08:44.252Z,48.25
2023-04-05T21:13:51.449Z,48.17
2023-04-05T21:18:58.672Z,48.93
2023-04-05T21:24:08.999Z,48.63
2023-04-05T21:29:16.625Z,48.57
2023-04-05T21:34:24.525Z,48.13
2023-04-05T21:39:34.678Z,49.20
2023-04-05T21:44:42.618Z,48.80
2023-04-05T21:49:50.537Z,48.15
2023-04-05T21:54:58.460Z,47.33
2023-04-05T22:00:09.321Z,48.73
2023-04-05T22:05:29.528Z,51.27
2023-04-05T22:10:27.639Z,51.07
2023-04-05T22:15:34.959Z,50.17
2023-04-05T22:25:48.560Z,52.08
2023-04-05T22:30:56.284Z,50.50
2023-04-05T22:36:03.677Z,51.37
2023-04-05T22:41:10.885Z,54.97
2023-04-05T22:46:19.397Z,54.13
2023-04-05T22:51:26.980Z,55.17
2023-04-05T22:56:34.419Z,55.40
2023-04-05T23:01:42.207Z,56.40
2023-04-05T23:06:49.548Z,52.80
2023-04-05T23:11:56.838Z,46.83
2023-04-05T23:17:06.865Z,46.67
2023-04-05T23:22:15.090Z,47.33
2023-04-05T23:27:23.196Z,46.97
2023-04-05T23:32:30.499Z,48.20
2023-04-05T23:37:38.250Z,47.74
2023-04-05T23:42:47.146Z,46.73
2023-04-05T23:47:56.221Z,46.23
2023-04-05T23:53:03.294Z,46.27
2023-04-05T23:58:11.238Z,48.40
